Time;durP1;ratioP1;P1;durP2;ratioP2;P2;SDS_P1;SDS_P2;PMS_P1;PMS_P2;Temp;Humidity;BMP_temperature;BMP_pressure;BME280_temperature;BME280_humidity;BME280_pressure;Samples;Min_cycle;Max_cycle;Signal;HPM_P1;HPM_P2
2023/01/31 00:01:08;;;;;;;10.90;3.20;;;5.40;99.90;;;;;;5052006;28;20240;-75
2023/01/31 00:03:35;;;;;;;17.50;4.57;;;5.50;99.90;;;;;;5049874;28;20235;-73
2023/01/31 00:06:18;;;;;;;28.92;3.92;;;5.50;99.90;;;;;;5052220;28;20631;-75
2023/01/31 00:08:45;;;;;;;21.10;4.38;;;5.50;99.90;;;;;;5051142;28;20593;-74
2023/01/31 00:11:12;;;;;;;10.68;3.08;;;5.50;99.90;;;;;;5050331;28;20197;-75
2023/01/31 00:13:39;;;;;;;10.60;3.08;;;5.40;99.90;;;;;;5052070;28;20308;-74
2023/01/31 00:16:07;;;;;;;14.45;3.33;;;5.40;99.90;;;;;;5049556;28;20690;-74
2023/01/31 00:18:36;;;;;;;20.70;4.25;;;5.40;99.90;;;;;;5051673;28;20242;-75
2023/01/31 00:21:12;;;;;;;8.48;2.63;;;5.30;99.90;;;;;;5050231;28;20625;-75
2023/01/31 00:23:41;;;;;;;12.13;3.42;;;5.30;99.90;;;;;;5051264;28;20244;-75
2023/01/31 00:26:13;;;;;;;24.85;3.88;;;5.20;99.90;;;;;;5050667;28;20304;-74
2023/01/31 00:28:41;;;;;;;11.32;4.38;;;5.20;99.90;;;;;;5054909;28;20299;-75
2023/01/31 00:31:09;;;;;;;12.85;2.90;;;5.20;99.90;;;;;;5055179;28;20290;-74
2023/01/31 00:33:37;;;;;;;14.93;4.22;;;5.00;99.90;;;;;;5055057;28;20254;-75
2023/01/31 00:36:06;;;;;;;15.80;3.22;;;5.10;99.90;;;;;;5056272;28;20653;-75
2023/01/31 00:38:35;;;;;;;14.35;3.28;;;5.00;99.90;;;;;;5054645;28;20382;-75
2023/01/31 00:41:04;;;;;;;12.60;4.07;;;5.10;99.90;;;;;;5055158;28;20215;-75
2023/01/31 00:43:32;;;;;;;10.68;2.88;;;5.10;99.90;;;;;;5053694;28;20209;-75
2023/01/31 00:45:59;;;;;;;12.48;4.95;;;5.10;99.90;;;;;;5055662;28;20232;-75
2023/01/31 00:48:26;;;;;;;18.02;4.10;;;5.10;99.90;;;;;;5055636;28;21584;-75
2023/01/31 00:50:53;;;;;;;11.23;3.65;;;5.00;99.90;;;;;;5055015;28;20232;-74
2023/01/31 00:53:24;;;;;;;20.23;4.50;;;4.90;99.90;;;;;;5054920;28;20262;-74
2023/01/31 00:55:52;;;;;;;16.17;3.95;;;4.90;99.90;;;;;;5049905;28;20678;-75
2023/01/31 00:58:22;;;;;;;20.13;4.45;;;4.90;99.90;;;;;;5055396;28;20283;-75
2023/01/31 01:00:49;;;;;;;18.75;4.50;;;4.90;99.90;;;;;;5054264;28;20199;-75
2023/01/31 01:03:17;;;;;;;17.52;3.47;;;4.90;99.90;;;;;;5053855;28;20243;-75
2023/01/31 01:05:44;;;;;;;21.70;3.80;;;4.90;99.90;;;;;;5053727;28;20303;-75
2023/01/31 01:08:11;;;;;;;24.83;4.45;;;4.90;99.90;;;;;;5054646;28;20246;-75
2023/01/31 01:10:38;;;;;;;16.90;3.58;;;5.00;99.90;;;;;;5052422;28;20294;-76
2023/01/31 01:13:05;;;;;;;22.30;3.53;;;5.00;99.90;;;;;;5053387;28;20200;-75
2023/01/31 01:15:37;;;;;;;17.92;4.60;;;5.00;99.90;;;;;;5053077;28;20254;-75
2023/01/31 01:18:04;;;;;;;17.83;4.22;;;5.10;99.90;;;;;;5042393;28;20207;-74
2023/01/31 01:20:31;;;;;;;29.20;4.45;;;5.10;99.90;;;;;;5053781;28;20207;-75
2023/01/31 01:22:59;;;;;;;23.30;4.95;;;5.00;99.90;;;;;;5052896;28;20204;-75
2023/01/31 01:25:26;;;;;;;17.02;2.78;;;5.00;99.90;;;;;;5054613;28;20252;-74
2023/01/31 01:27:54;;;;;;;22.63;4.05;;;5.10;99.90;;;;;;5053726;28;20214;-74
2023/01/31 01:30:21;;;;;;;23.50;2.92;;;5.10;99.90;;;;;;5053673;28;20198;-76
2023/01/31 01:32:49;;;;;;;17.33;4.13;;;5.10;99.90;;;;;;5052903;28;20662;-75
2023/01/31 01:35:16;;;;;;;15.90;5.80;;;5.20;99.90;;;;;;5054361;28;20309;-75
2023/01/31 01:37:43;;;;;;;12.95;4.00;;;5.20;99.90;;;;;;5052479;28;20291;-75
2023/01/31 01:40:11;;;;;;;21.02;3.13;;;5.30;99.90;;;;;;5052991;28;20200;-74
2023/01/31 01:42:38;;;;;;;13.25;4.15;;;5.30;99.90;;;;;;5054894;28;20637;-74
2023/01/31 01:45:15;;;;;;;19.35;5.88;;;5.30;99.90;;;;;;5054207;28;20243;-74
2023/01/31 01:47:46;;;;;;;13.98;3.25;;;5.30;99.90;;;;;;5054544;28;20210;-74
2023/01/31 01:50:20;;;;;;;8.10;2.60;;;5.20;99.90;;;;;;5052327;28;20682;-74
2023/01/31 01:52:50;;;;;;;14.30;2.90;;;5.20;99.90;;;;;;5054242;28;20227;-74
2023/01/31 01:55:23;;;;;;;14.65;3.05;;;5.20;99.90;;;;;;5053444;28;20228;-74
2023/01/31 01:57:53;;;;;;;17.10;4.00;;;5.20;99.90;;;;;;5053821;28;20286;-73
2023/01/31 02:00:23;;;;;;;17.65;3.78;;;5.20;99.90;;;;;;5052649;28;20209;-73
2023/01/31 02:02:53;;;;;;;13.15;2.80;;;5.10;99.90;;;;;;5053696;28;20647;-76
2023/01/31 02:05:27;;;;;;;8.65;2.42;;;5.10;99.90;;;;;;5052791;28;20585;-75
2023/01/31 02:07:55;;;;;;;12.40;2.75;;;5.10;99.90;;;;;;5054632;28;20256;-74
2023/01/31 02:10:26;;;;;;;20.70;3.40;;;5.00;99.90;;;;;;5053522;28;20199;-75
2023/01/31 02:12:53;;;;;;;12.32;3.05;;;5.00;99.90;;;;;;5053480;28;20205;-75
2023/01/31 02:15:21;;;;;;;27.98;3.35;;;4.90;99.90;;;;;;5053576;28;20312;-74
2023/01/31 02:17:48;;;;;;;21.08;6.38;;;5.00;99.90;;;;;;5053017;28;20207;-74
2023/01/31 02:20:36;;;;;;;15.27;3.20;;;5.00;99.90;;;;;;5052915;28;20579;-74
2023/01/31 02:23:24;;;;;;;16.65;5.38;;;5.10;99.90;;;;;;5053030;28;20561;-74
2023/01/31 02:26:17;;;;;;;10.40;3.28;;;5.10;99.90;;;;;;5037325;28;20224;-75
2023/01/31 02:29:02;;;;;;;13.07;2.88;;;5.30;99.90;;;;;;5038206;28;20295;-75
2023/01/31 02:31:51;;;;;;;15.18;3.25;;;5.20;99.90;;;;;;5052521;28;20622;-75
2023/01/31 02:34:27;;;;;;;12.48;3.70;;;5.30;99.90;;;;;;5053363;28;20313;-75
2023/01/31 02:37:06;;;;;;;18.98;3.70;;;5.30;99.90;;;;;;5033522;28;20225;-75
2023/01/31 02:39:41;;;;;;;23.30;4.35;;;5.30;99.90;;;;;;5027873;28;20239;-74
2023/01/31 02:42:15;;;;;;;12.43;3.53;;;5.40;99.90;;;;;;5032731;28;20203;-75
2023/01/31 02:44:58;;;;;;;19.58;3.72;;;5.40;99.90;;;;;;5043370;28;20291;-74
2023/01/31 02:47:43;;;;;;;17.88;4.00;;;5.40;99.90;;;;;;5036687;28;20631;-74
2023/01/31 02:50:18;;;;;;;23.98;3.65;;;5.40;99.90;;;;;;5052556;28;20579;-75
2023/01/31 02:52:50;;;;;;;27.13;3.03;;;5.40;99.90;;;;;;5035695;28;20305;-75
2023/01/31 02:58:14;;;;;;;13.93;4.20;;;5.30;99.90;;;;;;5035874;28;20200;-73
2023/01/31 03:00:44;;;;;;;24.77;4.63;;;5.30;99.90;;;;;;5051960;28;20232;-74
2023/01/31 03:03:18;;;;;;;22.70;4.43;;;5.30;99.90;;;;;;5052236;28;20213;-74
2023/01/31 03:06:09;;;;;;;21.15;4.13;;;5.20;99.90;;;;;;5052515;28;20653;-74
2023/01/31 03:08:37;;;;;;;20.58;5.00;;;5.20;99.90;;;;;;5047016;28;20282;-74
2023/01/31 03:11:07;;;;;;;17.52;3.65;;;5.10;99.90;;;;;;5051775;28;20196;-74
2023/01/31 03:13:48;;;;;;;20.52;5.93;;;5.10;99.90;;;;;;5051627;28;20204;-74
2023/01/31 03:19:15;;;;;;;29.42;3.80;;;5.00;99.90;;;;;;5046271;28;20203;-75
2023/01/31 03:21:47;;;;;;;15.55;3.38;;;5.00;99.90;;;;;;5041348;28;20207;-75
2023/01/31 03:24:16;;;;;;;12.73;4.10;;;5.10;99.90;;;;;;5050432;28;20207;-75
2023/01/31 03:26:44;;;;;;;10.77;4.65;;;5.10;99.90;;;;;;5051838;28;20234;-75
2023/01/31 03:29:15;;;;;;;26.55;5.15;;;5.10;99.90;;;;;;5050632;28;20201;-74
2023/01/31 03:31:47;;;;;;;15.15;4.40;;;5.20;99.90;;;;;;5051692;28;20204;-75
2023/01/31 03:34:16;;;;;;;18.92;3.10;;;5.20;99.90;;;;;;5050649;28;20207;-75
2023/01/31 03:36:50;;;;;;;18.45;4.20;;;5.20;99.90;;;;;;5051462;28;20580;-73
2023/01/31 03:39:29;;;;;;;16.40;3.75;;;5.10;99.90;;;;;;5050196;28;20564;-74
2023/01/31 03:42:06;;;;;;;13.50;3.42;;;5.10;99.90;;;;;;5031165;28;20226;-74
2023/01/31 03:44:43;;;;;;;16.10;3.83;;;5.20;99.90;;;;;;5048125;28;20215;-74
2023/01/31 03:47:15;;;;;;;27.92;5.85;;;5.20;99.90;;;;;;5040831;28;20291;-74
2023/01/31 03:49:45;;;;;;;11.57;6.13;;;5.10;99.90;;;;;;5050389;28;20403;-74
2023/01/31 03:52:18;;;;;;;23.45;4.03;;;5.00;99.90;;;;;;5051576;28;20206;-74
2023/01/31 03:54:53;;;;;;;22.50;3.63;;;5.00;99.90;;;;;;5103896;22;20255;-87
2023/01/31 03:57:24;;;;;;;20.80;4.13;;;5.00;99.90;;;;;;5107318;28;20199;-87
2023/01/31 03:59:55;;;;;;;13.65;4.13;;;5.00;99.90;;;;;;5106758;28;20195;-85
2023/01/31 04:02:25;;;;;;;20.33;6.00;;;4.90;99.90;;;;;;5089770;28;20227;-84
2023/01/31 04:04:55;;;;;;;25.42;5.07;;;4.80;99.90;;;;;;5084602;28;20219;-85
2023/01/31 04:07:24;;;;;;;9.30;5.30;;;4.70;99.90;;;;;;5082322;28;20211;-85
2023/01/31 04:09:51;;;;;;;15.45;3.08;;;4.70;99.90;;;;;;5074599;28;20268;-85
2023/01/31 04:12:18;;;;;;;23.73;5.97;;;4.70;99.90;;;;;;5074474;28;20235;-85
2023/01/31 04:14:45;;;;;;;10.95;3.00;;;4.60;99.90;;;;;;5085709;28;20606;-86
2023/01/31 04:17:12;;;;;;;14.95;3.38;;;4.60;99.90;;;;;;5069098;28;20278;-85
2023/01/31 04:19:39;;;;;;;32.15;5.38;;;4.60;99.90;;;;;;5074120;28;20207;-85
2023/01/31 04:22:05;;;;;;;24.10;4.82;;;4.60;99.90;;;;;;5077205;28;20597;-86
2023/01/31 04:24:34;;;;;;;21.00;4.07;;;4.60;99.90;;;;;;5073905;28;20645;-86
2023/01/31 04:27:01;;;;;;;23.63;4.18;;;4.60;99.90;;;;;;5085215;28;20183;-87
2023/01/31 04:29:28;;;;;;;14.40;3.70;;;4.60;99.90;;;;;;5083256;28;20197;-87
2023/01/31 04:31:55;;;;;;;9.32;3.90;;;4.60;99.90;;;;;;5084824;28;20191;-86
2023/01/31 04:34:21;;;;;;;11.60;2.40;;;4.60;99.90;;;;;;5095288;28;20212;-86
2023/01/31 04:36:48;;;;;;;8.80;2.63;;;4.60;99.90;;;;;;5096248;28;20214;-85
2023/01/31 04:39:17;;;;;;;19.08;3.58;;;4.60;99.90;;;;;;5084562;28;20267;-86
2023/01/31 04:41:45;;;;;;;13.77;4.05;;;4.60;99.90;;;;;;5079848;28;20196;-86
2023/01/31 04:44:12;;;;;;;17.30;2.83;;;4.60;99.90;;;;;;5085961;28;20235;-87
2023/01/31 04:46:39;;;;;;;19.42;4.22;;;4.60;99.90;;;;;;5086410;28;20217;-85
2023/01/31 04:49:06;;;;;;;11.85;4.03;;;4.70;99.90;;;;;;5089153;28;20199;-84
2023/01/31 04:51:33;;;;;;;19.45;3.85;;;4.70;99.90;;;;;;5077932;28;20184;-85
2023/01/31 04:54:00;;;;;;;21.30;3.95;;;4.60;99.90;;;;;;5085493;28;20234;-85
2023/01/31 04:56:27;;;;;;;11.60;3.28;;;4.60;99.90;;;;;;5088899;28;20236;-85
2023/01/31 04:58:55;;;;;;;10.85;2.70;;;4.70;99.90;;;;;;5082305;28;20206;-85
2023/01/31 05:01:22;;;;;;;16.83;3.40;;;4.70;99.90;;;;;;5080204;28;20258;-85
2023/01/31 05:03:49;;;;;;;16.17;4.82;;;4.70;99.90;;;;;;5088852;28;20267;-83
2023/01/31 05:06:16;;;;;;;15.70;3.22;;;4.70;99.90;;;;;;5091590;28;20202;-86
2023/01/31 05:08:43;;;;;;;14.93;3.40;;;4.70;99.90;;;;;;5078729;28;20204;-85
2023/01/31 05:11:10;;;;;;;24.08;4.10;;;4.90;99.90;;;;;;5073868;28;20201;-85
2023/01/31 05:13:38;;;;;;;20.23;3.45;;;4.70;99.90;;;;;;5072807;28;20466;-85
2023/01/31 05:16:09;;;;;;;15.38;3.53;;;4.80;99.90;;;;;;5062141;28;20323;-85
2023/01/31 05:18:37;;;;;;;12.55;4.10;;;4.90;99.90;;;;;;5054317;28;20227;-85
2023/01/31 05:21:05;;;;;;;18.80;4.38;;;4.80;99.90;;;;;;5063150;28;20223;-85
2023/01/31 05:23:32;;;;;;;14.13;2.90;;;4.80;99.90;;;;;;5081964;28;20246;-85
2023/01/31 05:26:00;;;;;;;11.68;3.13;;;4.80;99.90;;;;;;5066887;28;20260;-86
2023/01/31 05:28:27;;;;;;;12.70;3.30;;;4.80;99.90;;;;;;5089883;28;20447;-86
2023/01/31 05:30:54;;;;;;;15.85;3.92;;;4.90;99.90;;;;;;5083288;28;20189;-84
2023/01/31 05:33:22;;;;;;;10.35;3.10;;;4.90;99.90;;;;;;5075235;28;20795;-84
2023/01/31 05:35:49;;;;;;;15.73;4.13;;;4.80;99.90;;;;;;5079834;28;20739;-84
2023/01/31 05:38:16;;;;;;;21.63;4.20;;;4.90;99.90;;;;;;5073160;28;20266;-86
2023/01/31 05:40:43;;;;;;;7.50;3.30;;;4.90;99.90;;;;;;5068888;28;20199;-87
2023/01/31 05:43:10;;;;;;;21.10;3.53;;;5.00;99.90;;;;;;5077514;28;20296;-86
2023/01/31 05:45:37;;;;;;;17.67;4.68;;;5.00;99.90;;;;;;5075007;28;20237;-86
2023/01/31 05:48:04;;;;;;;17.35;4.38;;;5.10;99.90;;;;;;5066171;28;20268;-86
2023/01/31 05:50:32;;;;;;;11.85;3.85;;;5.00;99.90;;;;;;5063309;28;20214;-86
2023/01/31 05:53:01;;;;;;;13.75;4.05;;;5.00;99.90;;;;;;5066646;28;20208;-85
2023/01/31 05:55:29;;;;;;;18.83;3.58;;;5.20;99.90;;;;;;5062424;28;20224;-85
2023/01/31 05:57:57;;;;;;;12.40;3.60;;;5.10;99.90;;;;;;5062543;28;20218;-85
2023/01/31 06:00:24;;;;;;;19.70;3.70;;;5.20;99.90;;;;;;5062294;28;20240;-85
2023/01/31 06:02:51;;;;;;;11.02;4.00;;;5.10;99.90;;;;;;5068276;28;20211;-87
2023/01/31 06:05:18;;;;;;;11.90;2.85;;;5.10;99.90;;;;;;5065214;28;20779;-85
2023/01/31 06:07:46;;;;;;;14.02;4.00;;;5.20;99.90;;;;;;5062526;28;20304;-86
2023/01/31 06:10:14;;;;;;;20.45;6.40;;;5.20;99.90;;;;;;5070934;28;20256;-86
2023/01/31 06:12:41;;;;;;;11.68;2.97;;;5.20;99.90;;;;;;5081493;28;20213;-85
2023/01/31 06:15:08;;;;;;;18.88;6.78;;;5.30;99.90;;;;;;5072895;28;20232;-84
2023/01/31 06:17:35;;;;;;;18.42;3.78;;;5.30;99.90;;;;;;5060102;28;20590;-86
2023/01/31 06:20:03;;;;;;;8.77;4.03;;;5.30;99.90;;;;;;5069315;28;20702;-84
2023/01/31 06:22:30;;;;;;;19.58;3.95;;;5.30;99.90;;;;;;5059060;28;20205;-84
2023/01/31 06:24:58;;;;;;;21.17;4.35;;;5.40;99.90;;;;;;5063361;28;20655;-85
2023/01/31 06:27:25;;;;;;;19.17;3.75;;;5.40;99.90;;;;;;5071178;28;20208;-86
2023/01/31 06:29:52;;;;;;;10.13;3.17;;;5.40;99.90;;;;;;5071719;28;20227;-86
2023/01/31 06:32:19;;;;;;;15.25;3.85;;;5.40;99.90;;;;;;5069699;28;20206;-85
2023/01/31 06:34:46;;;;;;;20.75;5.18;;;5.40;99.90;;;;;;5072621;28;20230;-86
2023/01/31 06:37:13;;;;;;;23.17;5.05;;;5.40;99.90;;;;;;5073783;28;20266;-86
2023/01/31 06:39:40;;;;;;;24.52;5.05;;;5.40;99.90;;;;;;5078722;28;20207;-84
2023/01/31 06:42:15;;;;;;;20.20;4.32;;;5.50;99.90;;;;;;5079636;28;20233;-85
2023/01/31 06:48:14;;;;;;;23.88;7.18;;;5.50;99.90;;;;;;5010278;28;20193;-86
2023/01/31 06:50:48;;;;;;;19.92;6.50;;;5.50;99.90;;;;;;4990845;28;20212;-87
2023/01/31 06:53:15;;;;;;;14.80;6.20;;;5.50;99.90;;;;;;5049996;28;20224;-84
2023/01/31 06:55:43;;;;;;;17.55;6.15;;;5.60;99.90;;;;;;5073214;28;20248;-83
2023/01/31 06:58:11;;;;;;;22.83;7.25;;;5.50;99.90;;;;;;5079859;28;20201;-84
2023/01/31 07:01:43;;;;;;;17.38;6.38;;;5.60;99.90;;;;;;5073092;28;20219;-88
2023/01/31 07:07:12;;;;;;;12.50;5.85;;;6.00;99.90;;;;;;5054793;28;20259;-86
2023/01/31 07:19:25;;;;;;;20.17;6.30;;;5.80;99.90;;;;;;5059862;28;20683;-76
2023/01/31 07:21:52;;;;;;;18.02;7.75;;;5.80;99.90;;;;;;5069541;28;20271;-77
2023/01/31 07:24:19;;;;;;;21.48;6.68;;;5.80;99.90;;;;;;5056175;28;20276;-76
2023/01/31 07:26:47;;;;;;;12.77;5.75;;;5.80;99.90;;;;;;5055645;28;20260;-76
2023/01/31 07:29:15;;;;;;;17.98;7.53;;;5.80;99.90;;;;;;5049484;28;20198;-79
2023/01/31 07:31:42;;;;;;;18.27;7.10;;;5.80;99.90;;;;;;5051101;28;20299;-78
2023/01/31 07:34:10;;;;;;;26.23;7.15;;;5.80;99.90;;;;;;5051968;28;20253;-77
2023/01/31 07:36:36;;;;;;;11.20;5.70;;;5.90;99.90;;;;;;5053064;28;20691;-79
2023/01/31 07:39:05;;;;;;;30.02;9.15;;;5.80;99.90;;;;;;5054754;28;20282;-79
2023/01/31 07:41:32;;;;;;;21.27;7.40;;;5.80;99.90;;;;;;5050219;28;20216;-76
2023/01/31 07:44:00;;;;;;;17.45;7.47;;;5.80;99.90;;;;;;5055044;28;20214;-78
2023/01/31 07:46:28;;;;;;;21.58;6.72;;;5.80;99.90;;;;;;5052418;28;20746;-74
2023/01/31 07:48:56;;;;;;;15.55;6.00;;;5.90;99.90;;;;;;5052912;28;20263;-78
2023/01/31 07:51:23;;;;;;;20.55;9.10;;;6.00;99.90;;;;;;5055681;28;20293;-78
2023/01/31 07:53:50;;;;;;;18.83;6.75;;;6.00;99.90;;;;;;5052796;28;20611;-75
2023/01/31 07:56:19;;;;;;;22.85;9.65;;;6.00;99.90;;;;;;5054089;28;20647;-75
2023/01/31 07:58:48;;;;;;;15.43;7.55;;;6.20;99.90;;;;;;5046931;28;20594;-76
2023/01/31 08:04:03;;;;;;;20.20;7.28;;;6.20;99.90;;;;;;5052568;28;20283;-77
2023/01/31 08:06:30;;;;;;;26.42;7.47;;;6.30;99.90;;;;;;5052341;28;20261;-78
2023/01/31 08:08:58;;;;;;;16.52;7.00;;;6.20;99.90;;;;;;5052004;28;20664;-76
2023/01/31 08:11:25;;;;;;;25.70;7.93;;;6.20;99.90;;;;;;5043318;28;20278;-77
2023/01/31 08:13:52;;;;;;;17.63;7.88;;;6.20;99.90;;;;;;5051932;28;20297;-76
2023/01/31 08:16:20;;;;;;;23.88;9.35;;;6.20;99.90;;;;;;5051190;28;20230;-75
2023/01/31 08:18:47;;;;;;;25.15;8.90;;;6.20;99.90;;;;;;5052375;28;20210;-78
2023/01/31 08:21:22;;;;;;;21.70;8.25;;;6.20;99.90;;;;;;5052257;28;20289;-75
2023/01/31 08:23:49;;;;;;;21.30;9.25;;;6.20;99.90;;;;;;5052971;28;20242;-76
2023/01/31 08:26:21;;;;;;;20.70;9.10;;;6.20;99.90;;;;;;5052388;28;20314;-77
2023/01/31 08:28:50;;;;;;;21.60;9.15;;;6.20;99.90;;;;;;5051386;28;20244;-76
2023/01/31 08:31:21;;;;;;;30.95;9.65;;;6.20;99.90;;;;;;5056068;28;20682;-77
2023/01/31 08:33:50;;;;;;;19.65;10.20;;;6.20;99.90;;;;;;5059279;28;20206;-76
2023/01/31 08:36:19;;;;;;;18.25;9.90;;;6.10;99.90;;;;;;5056784;28;20237;-77
2023/01/31 08:38:48;;;;;;;19.23;11.00;;;6.10;99.90;;;;;;5052576;28;20202;-74
2023/01/31 08:41:16;;;;;;;16.52;11.15;;;6.20;99.90;;;;;;5052308;28;20272;-77
2023/01/31 08:43:43;;;;;;;29.65;12.18;;;6.10;99.90;;;;;;5053372;28;20238;-79
2023/01/31 08:46:29;;;;;;;26.15;11.02;;;6.00;99.90;;;;;;5052335;28;20304;-77
2023/01/31 08:48:56;;;;;;;19.10;9.32;;;6.10;99.90;;;;;;5056113;28;20288;-77
2023/01/31 08:51:23;;;;;;;32.42;11.30;;;6.10;99.90;;;;;;5057854;28;20220;-76
2023/01/31 08:53:52;;;;;;;15.75;10.45;;;6.10;99.90;;;;;;5065638;28;20238;-75
2023/01/31 08:56:20;;;;;;;19.42;10.13;;;6.10;99.90;;;;;;5058675;28;20230;-75
2023/01/31 08:58:47;;;;;;;20.92;11.65;;;6.20;99.90;;;;;;5054468;28;20206;-78
2023/01/31 09:01:16;;;;;;;25.17;13.57;;;6.20;99.90;;;;;;5054019;28;20208;-75
2023/01/31 09:03:43;;;;;;;32.40;12.45;;;6.20;99.90;;;;;;5061430;28;20206;-74
2023/01/31 09:06:13;;;;;;;23.08;11.48;;;6.30;99.90;;;;;;5061467;28;20230;-77
2023/01/31 09:08:40;;;;;;;31.13;13.23;;;6.30;99.90;;;;;;5062371;28;20205;-75
2023/01/31 09:11:09;;;;;;;23.63;13.27;;;6.30;99.90;;;;;;5063375;28;20233;-76
2023/01/31 09:13:36;;;;;;;27.70;11.82;;;6.30;99.90;;;;;;5058762;28;20298;-78
2023/01/31 09:16:05;;;;;;;25.33;11.35;;;6.30;99.90;;;;;;5064364;28;20253;-75
2023/01/31 09:18:35;;;;;;;28.23;12.80;;;6.30;99.90;;;;;;5060713;28;20297;-76
2023/01/31 09:21:04;;;;;;;23.75;12.23;;;6.30;99.90;;;;;;5048003;28;20204;-76
2023/01/31 09:23:31;;;;;;;26.98;13.27;;;6.30;99.90;;;;;;5048192;28;20666;-74
2023/01/31 09:26:00;;;;;;;26.35;12.63;;;6.30;99.90;;;;;;5054308;28;20229;-83
2023/01/31 09:28:29;;;;;;;25.42;12.98;;;6.30;99.90;;;;;;5062792;28;20229;-82
2023/01/31 09:31:02;;;;;;;25.67;12.18;;;6.30;99.90;;;;;;5059864;28;20206;-82
2023/01/31 09:33:31;;;;;;;27.88;13.85;;;6.40;99.90;;;;;;5054963;28;20257;-81
2023/01/31 09:36:00;;;;;;;23.52;12.85;;;6.30;99.90;;;;;;5055240;28;20704;-77
2023/01/31 09:38:27;;;;;;;23.50;13.70;;;6.40;99.90;;;;;;5053970;28;20720;-76
2023/01/31 09:40:56;;;;;;;28.05;14.35;;;6.40;99.90;;;;;;5051964;28;20230;-76
2023/01/31 09:43:27;;;;;;;32.47;15.40;;;6.40;99.90;;;;;;5053986;28;20253;-76
2023/01/31 09:45:59;;;;;;;32.75;14.50;;;6.40;99.90;;;;;;5058735;28;20226;-77
2023/01/31 09:48:30;;;;;;;32.28;13.40;;;6.40;99.90;;;;;;5048674;28;20626;-78
2023/01/31 09:50:59;;;;;;;26.10;13.23;;;6.40;99.90;;;;;;5055373;28;20285;-77
2023/01/31 09:53:29;;;;;;;22.75;14.93;;;6.40;99.90;;;;;;5154312;22;20287;-76
2023/01/31 09:56:11;;;;;;;27.55;15.10;;;6.50;99.90;;;;;;5109896;27;20231;-76
2023/01/31 09:58:47;;;;;;;29.52;15.80;;;6.50;99.90;;;;;;5120262;27;20284;-77
2023/01/31 10:01:23;;;;;;;28.88;15.00;;;6.40;99.90;;;;;;5092193;27;20234;-76
2023/01/31 10:04:17;;;;;;;34.83;16.45;;;6.40;99.90;;;;;;5095705;28;20207;-78
2023/01/31 10:06:51;;;;;;;30.33;15.10;;;6.50;99.90;;;;;;5097282;28;20289;-77
2023/01/31 10:09:27;;;;;;;36.63;15.65;;;6.40;99.90;;;;;;5089910;28;20287;-77
2023/01/31 10:11:58;;;;;;;22.40;15.18;;;6.50;99.90;;;;;;5099039;27;20249;-78
2023/01/31 10:14:39;;;;;;;34.80;16.92;;;6.50;99.90;;;;;;5105396;28;20233;-77
2023/01/31 10:17:15;;;;;;;33.42;14.93;;;6.50;99.90;;;;;;5115854;28;20250;-77
2023/01/31 10:19:48;;;;;;;29.45;15.45;;;6.50;99.90;;;;;;5094132;28;20283;-75
2023/01/31 10:22:20;;;;;;;40.38;17.15;;;6.50;99.90;;;;;;5112800;27;20284;-76
2023/01/31 10:24:54;;;;;;;33.00;17.42;;;6.50;99.90;;;;;;5101539;28;20252;-74
2023/01/31 10:27:35;;;;;;;31.25;16.75;;;6.50;99.90;;;;;;5112415;28;20196;-76
2023/01/31 10:30:05;;;;;;;25.95;15.18;;;6.40;99.90;;;;;;5108778;28;20238;-76
2023/01/31 10:32:41;;;;;;;23.20;15.15;;;6.40;99.90;;;;;;5126802;27;20589;-77
2023/01/31 10:35:15;;;;;;;22.10;14.45;;;6.50;99.90;;;;;;5115700;27;20224;-76
2023/01/31 10:37:46;;;;;;;24.58;15.73;;;6.50;99.90;;;;;;5081710;28;20224;-78
2023/01/31 10:40:16;;;;;;;31.77;15.70;;;6.50;99.90;;;;;;5104013;28;20208;-76
2023/01/31 10:42:48;;;;;;;33.65;15.05;;;6.50;99.90;;;;;;5108995;27;20229;-77
2023/01/31 10:45:18;;;;;;;35.50;15.95;;;6.50;99.90;;;;;;5106396;27;20225;-77
2023/01/31 10:47:50;;;;;;;28.20;15.95;;;6.50;99.90;;;;;;5100802;28;20205;-77
2023/01/31 10:50:20;;;;;;;26.13;18.15;;;6.50;99.90;;;;;;5100887;28;20290;-78
2023/01/31 10:52:58;;;;;;;31.20;17.30;;;6.50;99.90;;;;;;5113760;27;20212;-76
2023/01/31 10:55:49;;;;;;;29.50;18.75;;;6.60;99.90;;;;;;5082968;28;20241;-77
2023/01/31 10:58:19;;;;;;;46.95;20.77;;;6.60;99.90;;;;;;5115080;27;20333;-77
2023/01/31 11:00:46;;;;;;;35.05;20.63;;;6.60;99.90;;;;;;5102264;28;20664;-74
2023/01/31 11:03:15;;;;;;;41.95;21.80;;;6.60;99.90;;;;;;5111044;28;20288;-76
2023/01/31 11:05:47;;;;;;;37.90;20.27;;;6.70;99.90;;;;;;5106922;27;20228;-74
2023/01/31 11:08:25;;;;;;;33.65;18.17;;;6.60;99.90;;;;;;5099769;28;20253;-77
2023/01/31 11:10:53;;;;;;;40.53;19.58;;;6.60;99.90;;;;;;5099562;28;20198;-77
2023/01/31 11:13:21;;;;;;;33.55;20.52;;;6.70;99.90;;;;;;5098911;27;20724;-78
2023/01/31 11:15:50;;;;;;;36.00;17.50;;;6.70;99.90;;;;;;5111595;28;20278;-76
2023/01/31 11:18:27;;;;;;;39.85;19.73;;;6.70;99.90;;;;;;5101223;27;20648;-78
2023/01/31 11:20:55;;;;;;;35.85;18.85;;;6.70;99.90;;;;;;5115235;27;20196;-78
2023/01/31 11:23:25;;;;;;;34.95;19.27;;;6.70;99.90;;;;;;5099225;27;20263;-77
2023/01/31 11:25:53;;;;;;;32.97;16.38;;;6.70;99.90;;;;;;5110787;28;20308;-76
2023/01/31 11:28:23;;;;;;;31.90;18.70;;;6.70;99.90;;;;;;5110074;28;20192;-77
2023/01/31 11:30:52;;;;;;;24.30;18.98;;;6.80;99.90;;;;;;5100898;28;20645;-77
2023/01/31 11:33:40;;;;;;;43.92;17.77;;;6.80;99.90;;;;;;5102519;28;20591;-76
2023/01/31 11:36:09;;;;;;;27.98;17.00;;;6.70;99.90;;;;;;5108254;28;20216;-75
2023/01/31 11:38:36;;;;;;;26.92;17.13;;;6.70;99.90;;;;;;5112697;28;20761;-79
2023/01/31 11:41:28;;;;;;;35.65;16.05;;;6.70;99.90;;;;;;5110641;28;20238;-77
2023/01/31 11:44:14;;;;;;;30.60;16.98;;;6.80;99.90;;;;;;5108434;28;20209;-76
2023/01/31 11:46:46;;;;;;;30.48;16.73;;;6.80;99.90;;;;;;5117696;28;20273;-77
2023/01/31 11:49:22;;;;;;;34.55;15.07;;;6.80;99.90;;;;;;5106480;28;20296;-77
2023/01/31 11:51:49;;;;;;;28.83;15.73;;;6.80;99.90;;;;;;5109877;28;20234;-75
2023/01/31 11:54:22;;;;;;;24.17;14.43;;;6.90;99.90;;;;;;5107847;28;20223;-77
2023/01/31 11:56:49;;;;;;;23.25;13.88;;;6.90;99.90;;;;;;5115046;28;20228;-78
2023/01/31 11:59:20;;;;;;;33.28;14.30;;;6.90;99.90;;;;;;5103315;28;20210;-76
2023/01/31 12:01:49;;;;;;;22.35;12.90;;;6.90;99.90;;;;;;5109334;28;21353;-76
2023/01/31 12:04:30;;;;;;;17.92;11.68;;;7.00;99.90;;;;;;5112035;28;20288;-77
2023/01/31 12:07:04;;;;;;;29.83;12.82;;;6.90;99.90;;;;;;5101555;28;20329;-77
2023/01/31 12:09:42;;;;;;;16.88;11.65;;;7.00;99.90;;;;;;5100528;28;20212;-77
2023/01/31 12:12:32;;;;;;;17.42;11.70;;;7.10;99.90;;;;;;5103619;28;20228;-76
2023/01/31 12:15:04;;;;;;;18.80;10.95;;;7.10;99.90;;;;;;5110637;28;20253;-77
2023/01/31 12:17:35;;;;;;;16.17;10.80;;;7.10;99.90;;;;;;5112601;28;20225;-75
2023/01/31 12:20:17;;;;;;;18.90;11.13;;;7.10;99.90;;;;;;5099371;28;20223;-77
2023/01/31 12:22:51;;;;;;;24.23;10.95;;;7.10;99.90;;;;;;5101227;28;20244;-77
2023/01/31 12:25:27;;;;;;;16.20;9.25;;;7.10;99.90;;;;;;5104387;28;20217;-78
2023/01/31 12:28:03;;;;;;;20.25;9.00;;;7.20;99.90;;;;;;5085940;28;20212;-75
2023/01/31 12:30:49;;;;;;;14.77;9.20;;;7.20;99.90;;;;;;5107359;28;20233;-75
2023/01/31 12:33:30;;;;;;;11.35;8.80;;;7.30;99.90;;;;;;5088517;28;20242;-76
2023/01/31 12:36:22;;;;;;;14.73;9.55;;;7.30;99.90;;;;;;5097392;28;20233;-77
2023/01/31 12:39:06;;;;;;;10.38;7.88;;;7.30;99.90;;;;;;5110797;27;20633;-77
2023/01/31 12:41:39;;;;;;;17.05;7.30;;;7.30;99.90;;;;;;5112607;28;20205;-75
2023/01/31 12:44:27;;;;;;;11.27;7.13;;;7.30;99.90;;;;;;5116703;27;20211;-78
2023/01/31 12:47:09;;;;;;;21.65;7.57;;;7.40;99.90;;;;;;5105044;28;20280;-78
2023/01/31 12:50:05;;;;;;;12.27;6.80;;;7.40;99.90;;;;;;5097127;28;20200;-77
2023/01/31 12:52:43;;;;;;;9.55;6.40;;;7.50;99.90;;;;;;5108264;28;20296;-77
2023/01/31 12:55:30;;;;;;;9.82;5.50;;;7.40;99.90;;;;;;5097777;28;20229;-77
2023/01/31 12:58:13;;;;;;;11.05;5.70;;;7.50;99.90;;;;;;5116011;28;20271;-77
2023/01/31 13:00:46;;;;;;;9.93;6.05;;;7.50;99.90;;;;;;5086090;28;20252;-78
2023/01/31 13:03:36;;;;;;;10.20;5.22;;;7.70;99.90;;;;;;5116225;28;20539;-78
2023/01/31 13:06:14;;;;;;;8.50;6.65;;;7.50;99.90;;;;;;5089081;28;20229;-76
2023/01/31 13:08:46;;;;;;;6.40;4.50;;;7.50;99.90;;;;;;5095227;28;20204;-76
2023/01/31 13:11:29;;;;;;;8.23;4.25;;;7.50;99.90;;;;;;5098321;28;20290;-78
2023/01/31 13:14:00;;;;;;;7.18;3.42;;;7.60;99.90;;;;;;5101769;28;20280;-76
2023/01/31 13:16:42;;;;;;;6.75;4.03;;;7.60;99.90;;;;;;5114710;28;20236;-77
2023/01/31 13:19:15;;;;;;;5.90;4.68;;;7.60;99.90;;;;;;5110948;28;20246;-77
2023/01/31 13:21:51;;;;;;;6.90;4.00;;;7.60;99.90;;;;;;5103286;28;20243;-75
2023/01/31 13:24:24;;;;;;;7.22;4.47;;;7.50;99.90;;;;;;5115152;28;20197;-76
2023/01/31 13:26:57;;;;;;;4.95;3.90;;;7.60;99.90;;;;;;5114270;28;20316;-76
2023/01/31 13:30:00;;;;;;;8.77;4.30;;;7.60;99.90;;;;;;5106729;28;20190;-76
2023/01/31 13:32:30;;;;;;;5.82;4.55;;;7.60;99.90;;;;;;5132981;27;20347;-76